createdAt,value
2019-05-10T00:01:03.107Z,17.53
2019-05-10T00:03:51.000Z,16.90
2019-05-10T00:06:38.681Z,17.40
2019-05-10T00:09:07.534Z,17.23
2019-05-10T00:11:44.369Z,18.07
2019-05-10T00:14:27.596Z,17.87
2019-05-10T00:17:19.618Z,19.77
2019-05-10T00:19:52.749Z,20.60
2019-05-10T00:22:24.226Z,19.63
2019-05-10T00:25:03.874Z,20.03
2019-05-10T00:27:26.664Z,18.67
2019-05-10T00:29:56.168Z,18.63
2019-05-10T00:32:26.723Z,27.63
2019-05-10T00:34:56.522Z,19.57
2019-05-10T00:37:26.955Z,20.23
2019-05-10T00:39:56.700Z,23.17
2019-05-10T00:42:26.202Z,23.30
2019-05-10T00:44:56.597Z,21.53
2019-05-10T00:47:26.832Z,20.07
2019-05-10T00:49:56.773Z,21.40
2019-05-10T00:52:26.665Z,21.90
2019-05-10T00:54:57.006Z,25.23
2019-05-10T00:57:27.209Z,21.30
2019-05-10T00:59:57.053Z,21.47
2019-05-10T01:02:26.556Z,21.73
2019-05-10T01:04:56.803Z,22.93
2019-05-10T01:07:27.563Z,24.53
2019-05-10T01:09:57.407Z,20.73
2019-05-10T01:12:26.901Z,20.57
2019-05-10T01:14:57.123Z,21.30
2019-05-10T01:17:26.651Z,19.90
2019-05-10T01:19:57.804Z,21.60
2019-05-10T01:22:27.810Z,22.60
2019-05-10T01:24:57.635Z,22.47
2019-05-10T01:27:27.875Z,21.30
2019-05-10T01:29:58.373Z,21.90
2019-05-10T01:32:28.763Z,26.93
2019-05-10T01:34:58.630Z,22.57
2019-05-10T01:37:28.628Z,23.40
2019-05-10T01:39:58.256Z,22.50
2019-05-10T01:42:28.107Z,25.07
2019-05-10T01:44:58.170Z,22.37
2019-05-10T01:47:28.367Z,24.90
2019-05-10T01:49:58.204Z,23.60
2019-05-10T01:52:28.432Z,25.77
2019-05-10T01:54:58.294Z,24.70
2019-05-10T01:57:28.539Z,25.07
2019-05-10T01:59:58.342Z,22.93
2019-05-10T02:02:28.575Z,23.40
2019-05-10T02:04:57.995Z,23.17
2019-05-10T02:07:27.621Z,29.73
2019-05-10T02:09:57.183Z,24.70
2019-05-10T02:12:26.667Z,26.37
2019-05-10T02:14:56.547Z,25.27
2019-05-10T02:17:26.779Z,26.33
2019-05-10T02:19:56.567Z,24.90
2019-05-10T02:22:26.668Z,25.93
2019-05-10T02:24:56.584Z,28.53
2019-05-10T02:27:26.763Z,25.50
2019-05-10T02:29:56.678Z,25.67
2019-05-10T02:32:26.388Z,24.47
2019-05-10T02:34:56.753Z,27.37
2019-05-10T02:37:26.593Z,28.33
2019-05-10T02:39:57.529Z,29.77
2019-05-10T02:42:27.402Z,28.00
2019-05-10T02:44:57.247Z,30.10
2019-05-10T02:47:27.678Z,30.53
2019-05-10T02:49:59.298Z,24.97
2019-05-10T02:52:30.187Z,28.90
2019-05-10T02:55:00.076Z,24.87
2019-05-10T02:57:30.306Z,25.33
2019-05-10T03:00:01.924Z,27.20
2019-05-10T03:02:32.915Z,28.17
2019-05-10T03:05:04.575Z,28.40
2019-05-10T03:07:38.179Z,29.60
2019-05-10T03:10:10.032Z,29.67
2019-05-10T03:12:41.853Z,29.73
2019-05-10T03:15:14.679Z,27.40
2019-05-10T03:17:44.596Z,29.43
2019-05-10T03:20:15.023Z,27.80
2019-05-10T03:22:46.306Z,28.37
2019-05-10T03:25:16.115Z,28.57
2019-05-10T03:27:46.202Z,27.33
2019-05-10T03:30:16.049Z,29.73
2019-05-10T03:32:46.180Z,25.70
2019-05-10T03:35:15.756Z,30.27
2019-05-10T03:37:47.761Z,30.80
2019-05-10T03:40:17.410Z,26.63
2019-05-10T03:42:47.428Z,27.70
2019-05-10T03:45:17.530Z,29.00
2019-05-10T03:47:47.686Z,29.03
2019-05-10T03:50:17.741Z,31.00
2019-05-10T03:52:51.809Z,30.33
2019-05-10T03:55:18.944Z,29.37
2019-05-10T03:57:48.763Z,30.17
2019-05-10T04:00:18.432Z,34.30
2019-05-10T04:02:48.382Z,30.83
2019-05-10T04:05:18.653Z,29.83
2019-05-10T04:07:48.155Z,31.40
2019-05-10T04:10:20.969Z,33.33
2019-05-10T04:12:50.460Z,30.40
2019-05-10T04:15:20.203Z,30.93
2019-05-10T04:17:50.477Z,33.30
2019-05-10T04:20:20.286Z,29.80
2019-05-10T04:22:49.968Z,31.37
2019-05-10T04:25:19.841Z,32.47
2019-05-10T04:27:50.108Z,31.30
2019-05-10T04:30:21.051Z,31.67
2019-05-10T04:32:51.328Z,33.00
2019-05-10T04:35:21.483Z,31.53
2019-05-10T04:37:51.827Z,31.13
2019-05-10T04:40:21.405Z,30.23
2019-05-10T04:42:51.716Z,31.27
2019-05-10T04:45:21.950Z,32.60
2019-05-10T04:47:52.375Z,31.97
2019-05-10T04:50:22.684Z,29.10
2019-05-10T04:52:52.425Z,30.40
2019-05-10T04:55:21.990Z,32.60
2019-05-10T04:57:52.166Z,35.17
2019-05-10T05:00:22.636Z,30.77
2019-05-10T05:02:52.755Z,31.43
2019-05-10T05:05:23.497Z,33.10
2019-05-10T05:07:53.418Z,30.83
2019-05-10T05:10:23.726Z,35.50
2019-05-10T05:12:53.689Z,30.80
2019-05-10T05:15:23.459Z,29.83
2019-05-10T05:17:53.220Z,32.13
2019-05-10T05:20:23.134Z,32.37
2019-05-10T05:22:53.309Z,38.27
2019-05-10T05:25:23.660Z,29.93
2019-05-10T05:28:06.427Z,33.73
2019-05-10T05:30:25.098Z,32.13
2019-05-10T05:32:56.937Z,34.43
2019-05-10T05:35:27.120Z,32.23
2019-05-10T05:37:56.673Z,37.60
2019-05-10T05:40:27.312Z,34.27
2019-05-10T05:42:56.790Z,33.03
2019-05-10T05:45:28.344Z,34.10
2019-05-10T05:47:58.725Z,36.97
2019-05-10T05:50:28.780Z,33.80
2019-05-10T05:52:58.375Z,41.17
2019-05-10T05:55:30.717Z,36.30
2019-05-10T05:58:04.615Z,39.43
2019-05-10T06:00:37.835Z,35.93
2019-05-10T06:03:03.281Z,35.13
2019-05-10T06:05:36.729Z,31.77
2019-05-10T06:08:21.788Z,36.37
2019-05-10T06:10:38.031Z,30.87
2019-05-10T06:13:08.459Z,35.57
2019-05-10T06:15:39.040Z,33.43
2019-05-10T06:18:10.153Z,39.67
2019-05-10T06:20:44.447Z,33.77
2019-05-10T06:23:13.382Z,36.50
2019-05-10T06:25:43.664Z,32.40
2019-05-10T06:28:26.253Z,33.17
2019-05-10T06:30:45.810Z,33.33
2019-05-10T06:33:15.661Z,36.93
2019-05-10T06:35:45.703Z,36.17
2019-05-10T06:38:15.802Z,33.70
2019-05-10T06:40:47.747Z,39.97
2019-05-10T06:43:17.504Z,36.10
2019-05-10T06:45:52.607Z,36.10
2019-05-10T06:48:27.488Z,35.37
2019-05-10T06:50:52.051Z,32.80
2019-05-10T06:53:23.408Z,31.87
2019-05-10T06:55:54.307Z,35.20
2019-05-10T06:58:24.555Z,36.60
2019-05-10T07:00:55.355Z,37.13
2019-05-10T07:03:25.888Z,35.80
2019-05-10T07:05:57.012Z,35.50
2019-05-10T07:08:27.504Z,33.20
2019-05-10T07:10:57.416Z,33.70
2019-05-10T07:13:27.873Z,31.70
2019-05-10T07:15:57.909Z,30.50
2019-05-10T07:18:28.414Z,28.20
2019-05-10T07:21:00.963Z,28.80
2019-05-10T07:23:30.730Z,28.40
2019-05-10T07:26:00.626Z,24.60
2019-05-10T07:28:30.414Z,26.17
2019-05-10T07:31:00.291Z,24.87
2019-05-10T07:33:32.250Z,24.00
2019-05-10T07:36:02.988Z,26.93
2019-05-10T07:38:33.887Z,27.50
2019-05-10T07:41:04.443Z,27.93
2019-05-10T07:43:34.761Z,26.63
2019-05-10T07:46:08.929Z,26.63
2019-05-10T07:48:35.616Z,18.20
2019-05-10T07:51:06.301Z,22.37
2019-05-10T07:53:36.797Z,24.03
2019-05-10T07:56:08.044Z,24.80
2019-05-10T07:58:42.795Z,23.33
2019-05-10T08:01:09.834Z,23.80
2019-05-10T08:03:44.187Z,25.20
2019-05-10T08:06:15.048Z,22.17
2019-05-10T08:08:43.652Z,24.20
2019-05-10T08:11:16.203Z,21.23
2019-05-10T08:13:48.484Z,19.07
2019-05-10T08:16:22.774Z,20.67
2019-05-10T08:18:49.903Z,19.63
2019-05-10T08:21:23.848Z,18.27
2019-05-10T08:23:51.919Z,19.80
2019-05-10T08:26:24.796Z,20.43
2019-05-10T08:28:54.851Z,20.43
2019-05-10T08:31:26.365Z,21.73
2019-05-10T08:33:59.025Z,21.27
2019-05-10T08:36:28.186Z,20.13
2019-05-10T08:39:07.033Z,19.73
2019-05-10T08:41:32.405Z,20.30
2019-05-10T08:44:04.645Z,20.53
2019-05-10T08:46:40.774Z,19.30
2019-05-10T08:49:05.598Z,21.83
2019-05-10T08:51:43.971Z,22.20
2019-05-10T08:54:06.883Z,24.40
2019-05-10T08:56:37.277Z,23.17
2019-05-10T08:59:09.406Z,20.90
2019-05-10T09:01:46.935Z,27.57
2019-05-10T09:04:13.759Z,25.10
2019-05-10T09:06:47.343Z,23.33
2019-05-10T09:09:17.618Z,24.63
2019-05-10T09:11:47.851Z,18.70
2019-05-10T09:14:19.922Z,17.00
2019-05-10T09:16:57.564Z,15.27
2019-05-10T09:19:36.140Z,14.80
2019-05-10T09:21:58.173Z,14.10
2019-05-10T09:24:27.781Z,15.03
2019-05-10T09:26:58.098Z,16.67
2019-05-10T09:29:35.213Z,16.03
2019-05-10T09:32:06.669Z,16.53
2019-05-10T09:34:43.855Z,15.20
2019-05-10T09:37:17.569Z,17.40
2019-05-10T09:39:45.238Z,15.83
2019-05-10T09:42:24.971Z,15.70
2019-05-10T09:44:47.380Z,15.47
2019-05-10T09:47:17.178Z,14.37
2019-05-10T09:49:56.535Z,14.60
2019-05-10T09:52:18.882Z,16.53
2019-05-10T09:54:49.674Z,14.83
2019-05-10T09:57:19.891Z,20.30
2019-05-10T09:59:49.498Z,16.37
2019-05-10T10:02:19.375Z,14.07
2019-05-10T10:04:49.501Z,15.27
2019-05-10T10:07:24.208Z,15.53
2019-05-10T10:09:50.979Z,17.93
2019-05-10T10:12:21.100Z,16.67
2019-05-10T10:14:51.095Z,15.03
2019-05-10T10:17:20.911Z,14.77
2019-05-10T10:19:51.132Z,15.07
2019-05-10T10:22:24.408Z,14.63
2019-05-10T10:24:57.034Z,15.43
2019-05-10T10:27:34.297Z,16.30
2019-05-10T10:29:57.938Z,14.80
2019-05-10T10:32:34.784Z,18.17
2019-05-10T10:35:02.293Z,17.17
2019-05-10T10:37:33.853Z,17.33
2019-05-10T10:40:07.855Z,18.90
2019-05-10T10:42:38.134Z,17.47
2019-05-10T10:45:09.636Z,15.60
2019-05-10T10:47:40.070Z,17.57
2019-05-10T10:50:13.531Z,14.53
2019-05-10T10:52:42.087Z,15.67
2019-05-10T10:55:13.456Z,16.70
2019-05-10T10:57:43.581Z,18.67
2019-05-10T11:00:13.271Z,17.33
2019-05-10T11:02:46.791Z,17.47
2019-05-10T11:05:15.163Z,19.57
2019-05-10T11:07:47.801Z,19.10
2019-05-10T11:10:22.251Z,18.13
2019-05-10T11:12:56.272Z,18.23
2019-05-10T11:15:27.831Z,16.83
2019-05-10T11:17:55.753Z,18.80
2019-05-10T11:20:25.706Z,16.93
2019-05-10T11:22:55.839Z,18.90
2019-05-10T11:25:26.113Z,17.33
2019-05-10T11:27:58.780Z,18.80
2019-05-10T11:30:28.177Z,17.90
2019-05-10T11:33:00.482Z,18.07
2019-05-10T11:35:34.483Z,19.87
2019-05-10T11:38:06.583Z,20.53
2019-05-10T11:40:35.325Z,18.57
2019-05-10T11:43:05.190Z,20.30
2019-05-10T11:45:36.690Z,20.00
2019-05-10T11:48:06.954Z,19.97
2019-05-10T11:50:37.233Z,20.60
2019-05-10T11:53:13.238Z,21.00
2019-05-10T11:55:41.162Z,22.13
2019-05-10T11:58:13.178Z,21.67
2019-05-10T12:00:44.045Z,24.77
2019-05-10T12:03:18.313Z,24.20
2019-05-10T12:05:56.584Z,26.33
2019-05-10T12:08:22.980Z,23.47
2019-05-10T12:11:07.272Z,26.73
2019-05-10T12:13:26.683Z,26.47
2019-05-10T12:15:56.883Z,30.17
2019-05-10T12:18:27.181Z,27.00
2019-05-10T12:23:31.505Z,28.53
2019-05-10T12:26:31.417Z,27.90
2019-05-10T12:27:12.932Z,26.57
2019-05-10T12:28:35.871Z,27.67
2019-05-10T12:31:07.709Z,26.10
2019-05-10T12:33:37.570Z,25.30
2019-05-10T12:36:13.031Z,26.97
2019-05-10T12:38:39.731Z,27.30
2019-05-10T12:41:12.437Z,32.80
2019-05-10T12:43:43.679Z,29.10
2019-05-10T12:46:17.328Z,32.40
2019-05-10T12:48:47.000Z,33.77
2019-05-10T12:51:17.674Z,30.10
2019-05-10T12:53:49.791Z,30.50
2019-05-10T12:56:22.844Z,31.67
2019-05-10T12:58:57.891Z,30.13
2019-05-10T13:01:32.029Z,31.33
2019-05-10T13:04:01.997Z,30.73
2019-05-10T13:06:31.380Z,31.53
2019-05-10T13:09:01.852Z,29.70
2019-05-10T13:11:31.634Z,28.40
2019-05-10T13:14:07.507Z,31.23
2019-05-10T13:16:33.139Z,33.20
2019-05-10T13:19:03.531Z,36.20
2019-05-10T13:21:34.137Z,33.40
2019-05-10T13:24:04.763Z,31.07
2019-05-10T13:26:34.606Z,30.83
2019-05-10T13:29:08.240Z,34.77
2019-05-10T13:31:41.750Z,30.73
2019-05-10T13:34:07.837Z,30.10
2019-05-10T13:36:39.072Z,30.30
2019-05-10T13:39:10.168Z,32.57
2019-05-10T13:41:40.227Z,34.40
2019-05-10T13:44:11.585Z,33.37
2019-05-10T13:46:42.178Z,32.23
2019-05-10T13:49:12.365Z,31.00
2019-05-10T13:51:41.934Z,30.30
2019-05-10T13:54:11.619Z,32.83
2019-05-10T13:56:45.363Z,29.53
2019-05-10T13:59:16.003Z,33.17
2019-05-10T14:01:49.535Z,30.10
2019-05-10T14:04:16.245Z,28.63
2019-05-10T14:06:46.556Z,31.83
2019-05-10T14:09:16.442Z,28.73
2019-05-10T14:11:46.971Z,31.17
2019-05-10T14:14:20.583Z,30.10
2019-05-10T14:16:49.014Z,32.37
2019-05-10T14:19:22.747Z,31.97
2019-05-10T14:21:50.220Z,29.30
2019-05-10T14:24:21.013Z,31.20
2019-05-10T14:26:51.316Z,29.53
2019-05-10T14:29:33.430Z,30.23
2019-05-10T14:31:53.985Z,28.90
2019-05-10T14:34:23.638Z,28.70
2019-05-10T14:36:53.768Z,30.30
2019-05-10T14:39:24.161Z,28.77
2019-05-10T14:41:56.001Z,30.10
2019-05-10T14:44:25.623Z,32.63
2019-05-10T14:47:01.671Z,30.97
2019-05-10T14:49:31.955Z,28.50
2019-05-10T14:52:05.723Z,30.87
2019-05-10T14:54:43.287Z,28.63
2019-05-10T14:57:06.762Z,29.77
2019-05-10T14:59:36.265Z,31.30
2019-05-10T15:02:06.235Z,32.23
2019-05-10T15:04:45.206Z,32.40
2019-05-10T15:07:08.480Z,29.50
2019-05-10T15:09:38.783Z,28.63
2019-05-10T15:12:10.266Z,30.50
2019-05-10T15:14:41.337Z,29.40
2019-05-10T15:17:12.288Z,30.00
2019-05-10T15:19:42.743Z,28.50
2019-05-10T15:22:18.523Z,27.20
2019-05-10T15:24:44.331Z,29.47
2019-05-10T15:27:16.018Z,30.93
2019-05-10T15:29:45.643Z,31.10
2019-05-10T15:32:15.684Z,27.00
2019-05-10T15:35:04.346Z,28.90
2019-05-10T15:37:18.293Z,29.73
2019-05-10T15:39:48.041Z,32.47
2019-05-10T15:42:20.046Z,30.00
2019-05-10T15:44:50.483Z,28.67
2019-05-10T15:47:22.174Z,29.43
2019-05-10T15:49:54.467Z,28.10
2019-05-10T15:52:24.879Z,27.90
2019-05-10T15:54:54.741Z,28.30
2019-05-10T15:57:24.922Z,26.40
2019-05-10T15:59:56.429Z,27.37
2019-05-10T16:02:27.403Z,33.13
2019-05-10T16:04:57.540Z,28.70
2019-05-10T16:07:27.679Z,30.77
2019-05-10T16:09:57.501Z,27.77
2019-05-10T16:12:27.026Z,28.83
2019-05-10T16:14:56.806Z,26.93
2019-05-10T16:17:26.644Z,30.33
2019-05-10T16:19:59.750Z,29.80
2019-05-10T16:22:30.320Z,25.87
2019-05-10T16:25:02.454Z,25.27
2019-05-10T16:27:34.058Z,27.07
2019-05-10T16:30:02.921Z,28.10
2019-05-10T16:32:34.674Z,27.40
2019-05-10T16:35:12.395Z,27.30
2019-05-10T16:37:36.348Z,25.60
2019-05-10T16:40:07.011Z,25.70
2019-05-10T16:42:37.343Z,24.70
2019-05-10T16:45:10.076Z,26.97
2019-05-10T16:47:39.990Z,27.90
2019-05-10T16:50:10.979Z,29.00
2019-05-10T16:52:42.775Z,27.23
2019-05-10T16:55:12.777Z,28.50
2019-05-10T16:57:43.083Z,28.43
2019-05-10T17:00:15.807Z,27.63
2019-05-10T17:02:45.595Z,29.93
2019-05-10T17:05:17.131Z,29.70
2019-05-10T17:07:46.776Z,26.53
2019-05-10T17:10:16.562Z,26.90
2019-05-10T17:12:46.623Z,26.20
2019-05-10T17:15:16.391Z,27.47
2019-05-10T17:17:46.155Z,25.37
2019-05-10T17:20:16.590Z,25.37
2019-05-10T17:22:46.926Z,25.10
2019-05-10T17:25:17.220Z,25.47
2019-05-10T17:27:50.765Z,25.77
2019-05-10T17:30:21.828Z,25.33
2019-05-10T17:32:50.485Z,25.50
2019-05-10T17:35:20.080Z,28.60
2019-05-10T17:37:52.968Z,25.70
2019-05-10T17:40:22.725Z,25.03
2019-05-10T17:42:52.623Z,27.50
2019-05-10T17:45:22.741Z,24.03
2019-05-10T17:47:52.510Z,26.90
2019-05-10T17:50:23.239Z,27.77
2019-05-10T17:52:52.744Z,24.57
2019-05-10T17:55:25.444Z,25.63
2019-05-10T17:57:56.536Z,24.97
2019-05-10T18:00:26.668Z,28.17
2019-05-10T18:02:56.812Z,26.10
2019-05-10T18:05:27.242Z,30.03
2019-05-10T18:07:57.041Z,28.57
2019-05-10T18:10:27.465Z,26.33
2019-05-10T18:13:02.543Z,30.43
2019-05-10T18:15:33.000Z,27.53
2019-05-10T18:18:02.779Z,27.00
2019-05-10T18:20:41.149Z,27.13
2019-05-10T18:23:04.939Z,31.43
2019-05-10T18:25:34.830Z,29.73
2019-05-10T18:28:04.613Z,31.30
2019-05-10T18:30:34.628Z,27.73
2019-05-10T18:33:06.564Z,29.50
2019-05-10T18:35:36.249Z,31.30
2019-05-10T18:38:06.268Z,32.07
2019-05-10T18:40:36.725Z,32.03
2019-05-10T18:43:06.762Z,35.97
2019-05-10T18:45:36.550Z,29.47
2019-05-10T18:48:06.439Z,36.03
2019-05-10T18:50:39.628Z,36.43
2019-05-10T18:53:08.004Z,37.13
2019-05-10T18:55:38.390Z,37.10
2019-05-10T18:58:08.129Z,35.07
2019-05-10T19:00:40.193Z,38.70
2019-05-10T19:03:09.178Z,39.00
2019-05-10T19:05:39.347Z,32.90
2019-05-10T19:08:09.161Z,32.93
2019-05-10T19:10:39.315Z,40.20
2019-05-10T19:13:09.571Z,36.20
2019-05-10T19:15:39.633Z,37.93
2019-05-10T19:18:09.739Z,40.47
2019-05-10T19:20:39.957Z,35.90
2019-05-10T19:23:13.152Z,36.77
2019-05-10T19:25:45.573Z,37.17
2019-05-10T19:28:13.728Z,39.60
2019-05-10T19:30:43.795Z,37.63
2019-05-10T19:33:13.614Z,35.13
2019-05-10T19:35:45.743Z,39.57
2019-05-10T19:38:15.787Z,37.30
2019-05-10T19:40:45.928Z,37.83
2019-05-10T19:43:21.607Z,36.63
2019-05-10T19:45:51.166Z,37.83
2019-05-10T19:48:20.365Z,40.60
2019-05-10T19:50:50.275Z,37.37
2019-05-10T19:53:20.152Z,36.68
2019-05-10T19:55:57.215Z,36.77
2019-05-10T19:58:31.507Z,39.10
2019-05-10T20:00:56.370Z,37.33
2019-05-10T20:03:26.314Z,36.80
2019-05-10T20:05:56.089Z,37.33
2019-05-10T20:08:26.217Z,40.83
2019-05-10T20:10:55.746Z,38.93
2019-05-10T20:13:25.727Z,39.73
2019-05-10T20:16:14.296Z,38.80
2019-05-10T20:18:43.874Z,39.57
2019-05-10T20:21:13.642Z,55.20
2019-05-10T20:23:43.359Z,40.50
2019-05-10T20:26:13.632Z,37.10
2019-05-10T20:28:43.690Z,40.60
2019-05-10T20:31:14.681Z,40.87
2019-05-10T20:33:46.073Z,40.20
2019-05-10T20:36:15.588Z,43.70
2019-05-10T20:38:45.811Z,44.67
2019-05-10T20:41:15.941Z,40.47
2019-05-10T20:43:46.071Z,44.80
2019-05-10T20:46:15.607Z,36.77
2019-05-10T20:48:45.914Z,37.57
2019-05-10T20:51:16.005Z,40.93
2019-05-10T20:53:48.095Z,33.70
2019-05-10T20:56:18.393Z,37.03
2019-05-10T20:58:48.602Z,32.83
2019-05-10T21:01:18.448Z,35.23
2019-05-10T21:03:48.359Z,32.30
2019-05-10T21:06:18.102Z,36.80
2019-05-10T21:08:47.913Z,32.13
2019-05-10T21:11:17.827Z,36.67
2019-05-10T21:13:47.710Z,38.10
2019-05-10T21:16:17.265Z,34.10
2019-05-10T21:18:47.579Z,38.83
2019-05-10T21:21:17.932Z,34.00
2019-05-10T21:23:47.509Z,36.20
2019-05-10T21:26:18.351Z,36.43
2019-05-10T21:28:48.002Z,37.43
2019-05-10T21:31:17.850Z,35.23
2019-05-10T21:33:48.046Z,41.73
2019-05-10T21:36:18.608Z,40.87
2019-05-10T21:38:48.485Z,45.13
2019-05-10T21:41:18.127Z,45.93
2019-05-10T21:43:48.030Z,53.60
2019-05-10T21:46:17.640Z,45.30
2019-05-10T21:48:47.503Z,48.60
2019-05-10T21:51:17.042Z,44.77
2019-05-10T21:53:47.195Z,46.60
2019-05-10T21:56:17.096Z,44.83
2019-05-10T21:58:46.666Z,51.63
2019-05-10T22:01:16.533Z,47.70
2019-05-10T22:03:46.991Z,52.40
2019-05-10T22:06:16.978Z,50.40
2019-05-10T22:08:49.526Z,51.20
2019-05-10T22:11:18.901Z,53.60
2019-05-10T22:13:48.835Z,52.10
2019-05-10T22:16:19.135Z,56.37
2019-05-10T22:18:50.721Z,56.23
2019-05-10T22:21:20.290Z,55.47
2019-05-10T22:23:50.390Z,55.60
2019-05-10T22:26:20.179Z,58.60
2019-05-10T22:28:50.579Z,58.90
2019-05-10T22:31:20.743Z,56.00
2019-05-10T22:33:50.646Z,58.40
2019-05-10T22:36:21.266Z,59.77
2019-05-10T22:39:05.674Z,57.27
2019-05-10T22:41:22.858Z,55.70
2019-05-10T22:43:52.897Z,56.23
2019-05-10T22:46:23.395Z,60.50
2019-05-10T22:48:52.939Z,57.23
2019-05-10T22:51:22.779Z,60.97
2019-05-10T22:53:59.436Z,56.87
2019-05-10T22:56:24.622Z,57.03
2019-05-10T22:58:54.507Z,63.33
2019-05-10T23:01:24.296Z,60.03
2019-05-10T23:03:54.318Z,54.20
2019-05-10T23:06:24.157Z,60.97
2019-05-10T23:08:53.641Z,56.77
2019-05-10T23:11:23.475Z,59.57
2019-05-10T23:13:53.697Z,51.57
2019-05-10T23:16:23.543Z,48.70
2019-05-10T23:18:53.448Z,50.30
2019-05-10T23:21:23.743Z,50.17
2019-05-10T23:23:54.297Z,49.17
2019-05-10T23:26:24.474Z,48.80
2019-05-10T23:28:54.393Z,48.60
2019-05-10T23:31:23.883Z,47.60
2019-05-10T23:33:53.818Z,48.60
2019-05-10T23:36:23.711Z,47.70
2019-05-10T23:38:53.446Z,46.43
2019-05-10T23:41:23.336Z,42.73
2019-05-10T23:43:53.328Z,41.40
2019-05-10T23:46:22.795Z,40.93
2019-05-10T23:48:52.421Z,39.57
2019-05-10T23:51:22.743Z,43.50
2019-05-10T23:53:52.937Z,40.17
2019-05-10T23:56:22.778Z,43.20
2019-05-10T23:58:52.540Z,46.53
